Terminal Aerodrome Forecast
Issued by NWS

Home | Current Version | Previous Version | Text Only | Print | Product List | Glossary On
Versions: 1 2 3 4 5 6 7 8 9 10 11 12 13 14 15 16 17 18 19 20 21 22 23 24 25 26 27
000
FTUS41 KOKX 252300
TAFHPN
TAF
KHPN 252337Z 2600/2624 25005KT P6SM SCT050
     FM260400 28007KT P6SM BKN050
     FM260900 30010G16KT P6SM SCT050
     FM261500 30016G28KT P6SM BKN050
     FM262200 30014G22KT P6SM FEW050
      AMD NOT SKED=

USA.gov is the U.S. government's official web portal to all federal, state and local government web resources and services.